Time;durP1;ratioP1;P1;durP2;ratioP2;P2;SDS_P1;SDS_P2;PMS_P1;PMS_P2;Temp;Humidity;BMP_temperature;BMP_pressure;BME280_temperature;BME280_humidity;BME280_pressure;Samples;Min_cycle;Max_cycle;Signal;HPM_P1;HPM_P2
2021/09/09 09:51:44;;;;;;;22.75;15.70;;;24.10;99.90;;;;;;11986910;28;20124;-66
2021/09/09 09:57:33;;;;;;;;;;;24.40;99.90;;;;;;11903153;28;20055;-67
2021/09/09 10:03:22;;;;;;;25.80;15.65;;;25.60;99.90;;;;;;11878635;28;19929;-66
2021/09/09 10:09:11;;;;;;;23.77;13.13;;;26.50;99.90;;;;;;11885266;28;20069;-67
2021/09/09 10:15:00;;;;;;;17.55;9.82;;;26.80;99.90;;;;;;11883906;28;20057;-67
2021/09/09 10:20:47;;;;;;;12.85;9.05;;;26.70;99.90;;;;;;11920270;28;20077;-67
2021/09/09 10:26:50;;;;;;;13.35;9.35;;;26.40;99.90;;;;;;11888978;28;20057;-67
2021/09/09 10:33:00;;;;;;;12.32;8.95;;;26.30;99.90;;;;;;11877537;28;20050;-67
2021/09/09 10:38:46;;;;;;;13.10;9.73;;;26.50;99.90;;;;;;11878422;28;20061;-67
2021/09/09 10:44:49;;;;;;;15.63;7.90;;;26.80;99.90;;;;;;11886440;28;20494;-67
2021/09/09 10:50:37;;;;;;;10.07;7.77;;;26.80;99.90;;;;;;11916218;28;20050;-67
2021/09/09 10:56:26;;;;;;;11.48;6.20;;;27.00;99.90;;;;;;11937475;28;20159;-68
2021/09/09 11:02:15;;;;;;;8.93;4.88;;;27.20;99.90;;;;;;11901045;28;20045;-67
2021/09/09 11:08:02;;;;;;;6.18;4.20;;;27.50;99.90;;;;;;11886860;28;20517;-66
2021/09/09 11:13:56;;;;;;;3.85;3.50;;;27.60;99.90;;;;;;11921630;28;20045;-66
2021/09/09 11:19:45;;;;;;;5.43;3.13;;;27.60;99.90;;;;;;11903423;28;20053;-66
2021/09/09 11:25:33;;;;;;;4.45;2.22;;;27.70;97.20;;;;;;11906032;28;20046;-66
2021/09/09 11:31:22;;;;;;;8.75;2.38;;;27.70;96.80;;;;;;11921126;28;20041;-66
2021/09/09 11:37:10;;;;;;;1.83;1.60;;;27.60;95.20;;;;;;11888690;28;20114;-66
2021/09/09 11:43:02;;;;;;;4.18;1.50;;;27.40;95.00;;;;;;11934238;28;20058;-66
2021/09/09 11:48:52;;;;;;;2.53;1.10;;;27.30;95.10;;;;;;11887633;28;20046;-66
2021/09/09 11:54:41;;;;;;;3.30;1.20;;;27.30;93.80;;;;;;11876996;28;20062;-67
2021/09/09 12:00:28;;;;;;;2.70;1.30;;;27.00;94.70;;;;;;11922789;28;20057;-67
2021/09/09 12:06:18;;;;;;;2.45;1.10;;;27.10;94.20;;;;;;11914322;28;20058;-67
2021/09/09 12:12:08;;;;;;;2.10;1.20;;;27.40;93.30;;;;;;11912770;28;20050;-67
2021/09/09 12:18:08;;;;;;;2.33;1.10;;;27.80;92.40;;;;;;11920613;28;20101;-66
2021/09/09 12:24:00;;;;;;;2.72;1.40;;;27.80;91.80;;;;;;11916418;28;20101;-67
2021/09/09 12:29:48;;;;;;;6.55;1.33;;;28.00;91.80;;;;;;11910842;28;20521;-67
2021/09/09 12:35:35;;;;;;;1.95;1.55;;;28.20;91.60;;;;;;11897612;28;20046;-67
2021/09/09 12:41:31;;;;;;;3.38;1.38;;;28.10;91.20;;;;;;11926831;28;20437;-66
2021/09/09 12:47:19;;;;;;;2.50;1.10;;;28.20;91.10;;;;;;11916211;28;20115;-68
2021/09/09 12:53:06;;;;;;;1.83;1.23;;;28.10;90.50;;;;;;11901165;28;20048;-66
2021/09/09 12:58:53;;;;;;;3.90;1.40;;;27.80;91.00;;;;;;11914614;28;20049;-65
2021/09/09 13:04:41;;;;;;;6.38;1.38;;;28.00;91.30;;;;;;11900019;28;20054;-66
2021/09/09 13:10:28;;;;;;;1.90;1.17;;;27.90;91.10;;;;;;11924852;28;20056;-66
2021/09/09 13:16:16;;;;;;;6.55;1.35;;;28.30;90.70;;;;;;11923296;28;20049;-69
2021/09/09 13:22:04;;;;;;;1.77;0.75;;;28.10;90.80;;;;;;11912714;28;20042;-66
2021/09/09 13:27:51;;;;;;;1.98;0.98;;;28.20;90.90;;;;;;11893892;28;20048;-66
2021/09/09 13:33:38;;;;;;;1.98;1.13;;;28.20;89.90;;;;;;11923917;28;20053;-66
2021/09/09 13:39:27;;;;;;;2.53;1.00;;;28.30;89.00;;;;;;11870785;28;20058;-67
2021/09/09 13:45:13;;;;;;;2.00;0.98;;;28.60;89.20;;;;;;11885302;28;20099;-67
2021/09/09 13:51:01;;;;;;;2.92;1.08;;;28.60;87.50;;;;;;11909996;28;20529;-67
2021/09/09 13:56:49;;;;;;;6.45;1.40;;;28.60;88.30;;;;;;11931284;28;20465;-67
2021/09/09 14:02:37;;;;;;;6.00;0.95;;;28.60;86.60;;;;;;11932839;28;20045;-68
2021/09/09 14:08:23;;;;;;;1.85;0.90;;;29.00;86.40;;;;;;11881461;28;20575;-66
2021/09/09 14:14:12;;;;;;;2.55;1.20;;;29.10;84.90;;;;;;11917294;28;20587;-67
2021/09/09 14:20:01;;;;;;;5.43;1.27;;;29.10;84.60;;;;;;11902200;28;20051;-65
2021/09/09 14:25:48;;;;;;;3.15;1.33;;;29.30;82.90;;;;;;11913980;28;21173;-66
2021/09/09 14:31:36;;;;;;;2.78;1.10;;;29.20;81.80;;;;;;11900429;28;20681;-67
2021/09/09 14:37:23;;;;;;;4.07;0.90;;;29.30;83.30;;;;;;11897285;28;20046;-67
2021/09/09 14:43:10;;;;;;;6.47;1.27;;;29.70;80.70;;;;;;11895125;28;20034;-66
2021/09/09 14:48:59;;;;;;;4.63;1.00;;;29.70;78.90;;;;;;11918319;28;20048;-66
2021/09/09 14:54:46;;;;;;;1.33;0.85;;;29.70;79.70;;;;;;11904929;28;20042;-66
2021/09/09 15:00:33;;;;;;;2.45;1.17;;;29.80;79.10;;;;;;11903856;28;20041;-66
2021/09/09 15:06:21;;;;;;;3.80;1.20;;;29.70;78.50;;;;;;11917188;28;20468;-66
2021/09/09 15:12:09;;;;;;;2.47;1.10;;;29.50;77.80;;;;;;11879513;28;20050;-67
2021/09/09 15:17:57;;;;;;;4.22;1.10;;;29.80;76.30;;;;;;11892292;28;20050;-68
2021/09/09 15:23:45;;;;;;;2.80;1.17;;;29.50;76.90;;;;;;11907906;28;20083;-67
2021/09/09 15:29:32;;;;;;;5.57;1.20;;;29.20;78.00;;;;;;11933863;28;20046;-67
2021/09/09 15:35:19;;;;;;;6.15;1.15;;;29.00;78.10;;;;;;11923552;28;20046;-68
2021/09/09 15:41:09;;;;;;;3.33;1.25;;;29.20;78.50;;;;;;11905039;28;20138;-67
2021/09/09 15:46:56;;;;;;;4.43;1.10;;;29.10;78.50;;;;;;11903419;28;20831;-67
2021/09/09 15:52:43;;;;;;;2.33;1.13;;;28.70;79.40;;;;;;11906921;28;20100;-67
2021/09/09 15:58:32;;;;;;;3.15;1.27;;;28.70;78.80;;;;;;11885233;28;20517;-67
2021/09/09 16:04:18;;;;;;;2.47;1.17;;;28.90;78.80;;;;;;11912237;28;20046;-67
2021/09/09 16:10:06;;;;;;;1.42;0.90;;;28.50;78.70;;;;;;11888099;28;20049;-67
2021/09/09 16:15:55;;;;;;;3.92;1.40;;;28.20;80.30;;;;;;11919111;28;20566;-67
2021/09/09 16:21:42;;;;;;;2.53;1.10;;;28.20;79.70;;;;;;11905944;28;20045;-67
2021/09/09 16:27:29;;;;;;;2.65;1.10;;;28.30;80.00;;;;;;11879449;28;20072;-67
2021/09/09 16:33:17;;;;;;;1.13;0.82;;;28.40;80.40;;;;;;11927607;28;20054;-67
2021/09/09 16:39:04;;;;;;;2.78;1.30;;;28.40;80.40;;;;;;11891378;28;20062;-67
2021/09/09 16:44:51;;;;;;;6.57;1.60;;;28.20;80.50;;;;;;11905044;28;20049;-67
2021/09/09 16:50:39;;;;;;;1.92;1.20;;;27.90;82.80;;;;;;11899951;28;20056;-68
2021/09/09 16:56:26;;;;;;;5.53;1.60;;;27.60;84.00;;;;;;11922017;28;20052;-67
2021/09/09 17:02:15;;;;;;;6.20;2.00;;;26.80;90.40;;;;;;11890628;28;20049;-68
2021/09/09 17:08:03;;;;;;;7.13;1.75;;;26.60;92.10;;;;;;11922881;28;20507;-67
2021/09/09 17:13:50;;;;;;;4.57;1.65;;;26.80;92.20;;;;;;11906337;28;20123;-67
2021/09/09 17:19:37;;;;;;;4.38;1.77;;;26.70;92.30;;;;;;11921392;28;20103;-67
2021/09/09 17:25:27;;;;;;;3.80;1.33;;;26.80;92.60;;;;;;11874279;28;20061;-67
2021/09/09 17:31:15;;;;;;;8.13;1.50;;;26.80;92.40;;;;;;11887011;28;20050;-66
2021/09/09 17:37:02;;;;;;;2.65;1.38;;;26.90;92.60;;;;;;11893832;28;20061;-64
2021/09/09 17:42:50;;;;;;;4.05;1.55;;;27.00;92.00;;;;;;11914598;28;20045;-66
2021/09/09 17:48:37;;;;;;;2.67;1.08;;;26.90;91.90;;;;;;11891853;28;20124;-67
2021/09/09 17:54:24;;;;;;;2.97;1.08;;;27.00;91.90;;;;;;11915341;28;20041;-65
2021/09/09 18:00:14;;;;;;;2.92;1.23;;;27.00;91.60;;;;;;11866398;28;20073;-63
2021/09/09 18:06:01;;;;;;;2.22;1.30;;;27.00;91.50;;;;;;11889654;28;20057;-65
2021/09/09 18:11:48;;;;;;;8.55;1.95;;;26.90;91.40;;;;;;11889224;28;20058;-65
2021/09/09 18:17:39;;;;;;;2.08;1.63;;;26.80;92.10;;;;;;11881897;28;20058;-67
2021/09/09 18:23:26;;;;;;;3.75;1.83;;;26.70;92.20;;;;;;11895152;28;20053;-66
2021/09/09 18:29:13;;;;;;;5.65;1.77;;;26.60;92.40;;;;;;11914077;28;20436;-66
2021/09/09 18:35:02;;;;;;;6.03;3.10;;;26.40;93.10;;;;;;11920472;28;20509;-60
2021/09/09 18:40:48;;;;;;;5.45;2.00;;;26.30;93.80;;;;;;11950896;28;20056;-59
2021/09/09 18:46:35;;;;;;;2.83;1.40;;;26.00;94.20;;;;;;11935103;28;20052;-59
2021/09/09 18:52:24;;;;;;;3.28;1.50;;;25.80;94.70;;;;;;11928364;28;20053;-59
2021/09/09 18:58:11;;;;;;;3.60;1.40;;;25.70;95.00;;;;;;11939291;28;20967;-60
2021/09/09 19:03:58;;;;;;;4.70;1.50;;;25.50;95.40;;;;;;11939009;28;20056;-58
2021/09/09 19:09:47;;;;;;;2.78;1.58;;;25.50;95.60;;;;;;11915933;28;20045;-60
2021/09/09 19:15:34;;;;;;;3.03;1.42;;;25.40;95.80;;;;;;11943562;28;20041;-59
2021/09/09 19:21:21;;;;;;;6.25;1.83;;;25.30;95.80;;;;;;11948777;28;20041;-59
2021/09/09 19:27:09;;;;;;;2.00;1.40;;;25.20;96.10;;;;;;11948854;28;20057;-59
2021/09/09 19:32:56;;;;;;;3.42;1.60;;;25.20;96.30;;;;;;11947906;28;20513;-60
2021/09/09 19:38:43;;;;;;;4.10;1.80;;;25.20;96.50;;;;;;11948380;28;20053;-61
2021/09/09 19:44:31;;;;;;;4.97;2.05;;;25.20;96.50;;;;;;11940475;28;20065;-60
2021/09/09 19:50:18;;;;;;;3.22;1.70;;;25.10;96.60;;;;;;11944956;28;20038;-60
2021/09/09 19:56:07;;;;;;;6.18;1.90;;;25.10;97.00;;;;;;11947755;28;20065;-60
2021/09/09 20:01:55;;;;;;;5.40;2.72;;;25.10;97.10;;;;;;11943974;28;20121;-60
2021/09/09 20:07:43;;;;;;;5.15;2.15;;;25.10;97.20;;;;;;11900517;28;20421;-61
2021/09/09 20:13:32;;;;;;;3.95;1.75;;;25.00;97.30;;;;;;11900175;28;20131;-61
2021/09/09 20:19:21;;;;;;;5.80;2.30;;;25.00;97.50;;;;;;11913874;28;20042;-58
